Volgograd, Russia
Current Conditions -  °F | °C
As of 3:30 PM on Friday 31 Oct 2014 (Local Time) from URWW Reporting Station
Clear Clear  
Wind Chill: 50°   Ceiling: Unl
Heat Index: 50°   Visibility: 6mi
Dew Point: 19°   Wind: 7mph
Humidity: 30%   Direction: 90°E
Pressure: 30.12"   Gusts: NA
Location:  48.71°N, 44.48°E
Report Text: URWW 311230Z 09003MPS CAVOK 10/M07 Q1020 NOSIG RMK SC070
Loading
Personal Weather Stations






























Interactive Weather Map
Tropical Storm Tracking
New forecast layout! Learn more

10-Day Weather Forecast

Advertisements
Track Severe Weather on mobile